Time;durP1;ratioP1;P1;durP2;ratioP2;P2;SDS_P1;SDS_P2;PMS_P1;PMS_P2;Temp;Humidity;BMP_temperature;BMP_pressure;BME280_temperature;BME280_humidity;BME280_pressure;Samples;Min_cycle;Max_cycle;Signal;HPM_P1;HPM_P2
2023/04/10 00:01:08;;;;;;;55.27;35.50;;;5.70;99.90;;;;;;5066462;28;20047;-70
2023/04/10 00:03:34;;;;;;;53.93;34.03;;;5.70;99.90;;;;;;5087724;28;20028;-69
2023/04/10 00:05:59;;;;;;;67.50;35.37;;;5.70;99.90;;;;;;5084917;28;20507;-69
2023/04/10 00:08:25;;;;;;;52.27;34.90;;;5.60;99.90;;;;;;5090553;28;20044;-70
2023/04/10 00:10:53;;;;;;;52.90;35.33;;;5.60;99.90;;;;;;5086699;28;20032;-70
2023/04/10 00:13:19;;;;;;;52.70;36.17;;;5.50;99.90;;;;;;5083933;28;20084;-70
2023/04/10 00:15:46;;;;;;;56.80;36.67;;;5.50;99.90;;;;;;5078784;28;20048;-70
2023/04/10 00:18:12;;;;;;;58.40;36.75;;;5.50;99.90;;;;;;5088739;28;20388;-70
2023/04/10 00:20:38;;;;;;;57.37;35.83;;;5.40;99.90;;;;;;5083562;28;20040;-70
2023/04/10 00:23:03;;;;;;;60.97;38.27;;;5.40;99.90;;;;;;5087289;28;21249;-69
2023/04/10 00:25:29;;;;;;;59.50;38.83;;;5.40;99.90;;;;;;5085119;28;20040;-69
2023/04/10 00:27:55;;;;;;;61.73;39.77;;;5.30;99.90;;;;;;5076150;28;20040;-70
2023/04/10 00:30:21;;;;;;;68.80;42.07;;;5.30;99.90;;;;;;5076007;28;20101;-70
2023/04/10 00:32:47;;;;;;;65.57;41.30;;;5.30;99.90;;;;;;5078347;28;20036;-69
2023/04/10 00:35:12;;;;;;;68.60;42.03;;;5.30;99.90;;;;;;5079004;28;20036;-69
2023/04/10 00:37:38;;;;;;;66.67;40.33;;;5.30;99.90;;;;;;5078971;28;20314;-70
2023/04/10 00:40:05;;;;;;;64.80;41.00;;;5.30;99.90;;;;;;5087921;28;20138;-70
2023/04/10 00:42:31;;;;;;;63.00;39.90;;;5.30;99.90;;;;;;5089750;28;20078;-69
2023/04/10 00:44:58;;;;;;;60.90;40.05;;;5.30;99.90;;;;;;5072576;28;20060;-70
2023/04/10 00:47:25;;;;;;;59.63;38.88;;;5.30;99.90;;;;;;5087865;28;20125;-70
2023/04/10 00:49:50;;;;;;;63.90;40.95;;;5.30;99.90;;;;;;5057339;28;20047;-70
2023/04/10 00:52:17;;;;;;;60.93;39.37;;;5.30;99.90;;;;;;5074351;28;20044;-70
2023/04/10 00:54:43;;;;;;;59.63;39.45;;;5.30;99.90;;;;;;5087510;28;20078;-70
2023/04/10 00:57:08;;;;;;;61.87;41.37;;;5.20;99.90;;;;;;5087533;28;20433;-70
2023/04/10 00:59:34;;;;;;;59.63;39.23;;;5.20;99.90;;;;;;5057880;28;20421;-69
2023/04/10 01:02:00;;;;;;;60.05;41.15;;;5.20;99.90;;;;;;5069340;28;20487;-69
2023/04/10 01:04:27;;;;;;;62.20;41.33;;;5.10;99.90;;;;;;5082705;28;20044;-69
2023/04/10 01:07:13;;;;;;;64.05;41.65;;;5.10;99.90;;;;;;5058876;28;20044;-69
2023/04/10 01:09:45;;;;;;;63.08;41.63;;;5.10;99.90;;;;;;5080668;28;20048;-69
2023/04/10 01:12:41;;;;;;;62.95;41.28;;;5.10;99.90;;;;;;5068438;28;20124;-70
2023/04/10 01:15:12;;;;;;;63.97;40.80;;;5.00;99.90;;;;;;5096571;28;20127;-70
2023/04/10 01:17:50;;;;;;;66.10;41.95;;;5.00;99.90;;;;;;5088650;28;20071;-70
2023/04/10 01:20:21;;;;;;;62.95;40.70;;;5.00;99.90;;;;;;5082476;28;20028;-69
2023/04/10 01:23:12;;;;;;;64.50;42.00;;;5.00;99.90;;;;;;5087775;28;20059;-70
2023/04/10 01:26:02;;;;;;;64.93;41.95;;;5.00;99.90;;;;;;5102722;28;20106;-69
2023/04/10 01:28:59;;;;;;;63.65;41.15;;;4.90;99.90;;;;;;5068179;28;20044;-69
2023/04/10 01:32:03;;;;;;;61.67;40.88;;;4.90;99.90;;;;;;5056188;28;20046;-69
2023/04/10 01:34:44;;;;;;;67.75;43.55;;;4.90;99.90;;;;;;5074219;28;20060;-69
2023/04/10 01:37:30;;;;;;;68.70;44.40;;;4.80;99.90;;;;;;5081597;28;20059;-70
2023/04/10 01:40:07;;;;;;;69.28;43.38;;;4.80;99.90;;;;;;5063229;28;20583;-70
2023/04/10 01:42:45;;;;;;;70.47;45.22;;;4.80;99.90;;;;;;5070208;28;20132;-70
2023/04/10 01:45:17;;;;;;;65.65;43.33;;;4.80;99.90;;;;;;5086290;28;20044;-70
2023/04/10 01:47:43;;;;;;;69.63;44.15;;;4.80;99.90;;;;;;5060670;28;20036;-70
2023/04/10 01:50:10;;;;;;;68.25;44.55;;;4.80;99.90;;;;;;5068510;28;20429;-69
2023/04/10 01:52:37;;;;;;;66.63;43.65;;;4.70;99.90;;;;;;5085956;28;20097;-69
2023/04/10 01:55:05;;;;;;;70.65;44.33;;;4.70;99.90;;;;;;5087398;28;20079;-69
2023/04/10 01:57:30;;;;;;;64.88;44.08;;;4.70;99.90;;;;;;5080739;28;20039;-69
2023/04/10 01:59:57;;;;;;;67.33;43.33;;;4.70;99.90;;;;;;5088216;28;20039;-69
2023/04/10 02:02:23;;;;;;;67.78;44.25;;;4.70;99.90;;;;;;5079889;28;20051;-69
2023/04/10 02:04:51;;;;;;;70.17;43.70;;;4.70;99.90;;;;;;5065569;28;20074;-70
2023/04/10 02:07:30;;;;;;;73.28;44.25;;;4.60;99.90;;;;;;5086215;28;20040;-70
2023/04/10 02:09:55;;;;;;;67.25;43.08;;;4.60;99.90;;;;;;5071199;28;20039;-69
2023/04/10 02:12:27;;;;;;;67.50;44.20;;;4.60;99.90;;;;;;5084899;28;20048;-69
2023/04/10 02:14:56;;;;;;;64.10;42.33;;;4.60;99.90;;;;;;5081049;28;20040;-69
2023/04/10 02:17:27;;;;;;;68.25;44.17;;;4.60;99.90;;;;;;5087160;28;20039;-70
2023/04/10 02:19:57;;;;;;;64.28;42.78;;;4.60;99.90;;;;;;5086553;28;20036;-69
2023/04/10 02:22:24;;;;;;;64.53;41.95;;;4.60;99.90;;;;;;5082730;28;20520;-69
2023/04/10 02:24:53;;;;;;;69.68;44.25;;;4.60;99.90;;;;;;5083253;28;20044;-69
2023/04/10 02:27:39;;;;;;;69.47;43.47;;;4.60;99.90;;;;;;5070987;28;20566;-69
2023/04/10 02:30:06;;;;;;;66.18;43.88;;;4.60;99.90;;;;;;5082896;28;20083;-70
2023/04/10 02:32:32;;;;;;;67.30;43.40;;;4.60;99.90;;;;;;5083688;28;20496;-70
2023/04/10 02:34:58;;;;;;;63.80;42.67;;;4.60;99.90;;;;;;5068949;28;20028;-69
2023/04/10 02:37:24;;;;;;;62.78;42.67;;;4.70;99.90;;;;;;5087534;28;20036;-69
2023/04/10 02:39:51;;;;;;;65.90;43.63;;;4.70;99.90;;;;;;5069693;28;20169;-69
2023/04/10 02:42:16;;;;;;;62.47;42.10;;;4.70;99.90;;;;;;5084916;28;20068;-69
2023/04/10 02:44:42;;;;;;;62.03;42.50;;;4.70;99.90;;;;;;5056521;28;20071;-69
2023/04/10 02:47:08;;;;;;;68.70;41.50;;;4.70;99.90;;;;;;5088256;28;20499;-69
2023/04/10 02:49:34;;;;;;;63.63;41.57;;;4.70;99.90;;;;;;5081822;28;20048;-69
2023/04/10 02:52:00;;;;;;;63.70;42.90;;;4.70;99.90;;;;;;5084685;28;20047;-69
2023/04/10 02:54:26;;;;;;;60.28;42.17;;;4.60;99.90;;;;;;5080775;28;21363;-69
2023/04/10 02:56:52;;;;;;;65.35;44.08;;;4.70;99.90;;;;;;5078445;28;20089;-69
2023/04/10 02:59:18;;;;;;;63.57;42.93;;;4.60;99.90;;;;;;5080999;28;20043;-69
2023/04/10 03:01:48;;;;;;;62.90;41.55;;;4.60;99.90;;;;;;5087758;28;20055;-69
2023/04/10 03:04:13;;;;;;;60.50;41.78;;;4.60;99.90;;;;;;5061262;28;20394;-70
2023/04/10 03:06:39;;;;;;;60.80;41.53;;;4.60;99.90;;;;;;5076874;28;20038;-69
2023/04/10 03:09:05;;;;;;;64.77;41.87;;;4.60;99.90;;;;;;5087847;28;20048;-69
2023/04/10 03:11:31;;;;;;;59.80;41.57;;;4.60;99.90;;;;;;5085462;28;20039;-69
2023/04/10 03:13:59;;;;;;;65.60;42.90;;;4.60;99.90;;;;;;5066682;28;20145;-69
2023/04/10 03:16:25;;;;;;;60.20;41.65;;;4.60;99.90;;;;;;5080305;28;20052;-69
2023/04/10 03:18:52;;;;;;;63.97;41.97;;;4.60;99.90;;;;;;5067929;28;20040;-69
2023/04/10 03:21:17;;;;;;;60.55;42.20;;;4.60;99.90;;;;;;5087477;28;20120;-69
2023/04/10 03:23:43;;;;;;;59.07;40.27;;;4.60;99.90;;;;;;5084000;28;20067;-70
2023/04/10 03:26:09;;;;;;;55.07;39.83;;;4.60;99.90;;;;;;5083286;28;20040;-70
2023/04/10 03:28:35;;;;;;;61.70;41.43;;;4.50;99.90;;;;;;5084861;28;20491;-69
2023/04/10 03:31:04;;;;;;;60.85;41.47;;;4.50;99.90;;;;;;5069699;28;20510;-69
2023/04/10 03:33:30;;;;;;;58.53;38.78;;;4.50;99.90;;;;;;5073579;28;20130;-69
2023/04/10 03:35:56;;;;;;;59.47;38.90;;;4.40;99.90;;;;;;5089332;28;20563;-69
2023/04/10 03:38:22;;;;;;;56.33;39.55;;;4.40;99.90;;;;;;5087128;28;20119;-69
2023/04/10 03:40:48;;;;;;;58.70;40.47;;;4.40;99.90;;;;;;5065882;28;20131;-69
2023/04/10 03:43:15;;;;;;;57.30;39.63;;;4.40;99.90;;;;;;5070942;28;20348;-69
2023/04/10 03:45:41;;;;;;;60.22;38.70;;;4.50;99.90;;;;;;5073775;28;20947;-69
2023/04/10 03:48:07;;;;;;;57.58;39.17;;;4.50;99.90;;;;;;5089702;28;21423;-69
2023/04/10 03:50:33;;;;;;;56.37;37.60;;;4.60;99.90;;;;;;5079086;28;20047;-69
2023/04/10 03:52:59;;;;;;;56.40;38.13;;;4.60;99.90;;;;;;5068321;28;20041;-69
2023/04/10 03:55:25;;;;;;;54.55;36.13;;;4.60;99.90;;;;;;5072192;28;20069;-69
2023/04/10 03:57:51;;;;;;;51.13;35.60;;;4.70;99.90;;;;;;5087839;28;20070;-69
2023/04/10 04:00:17;;;;;;;52.03;35.20;;;4.70;99.90;;;;;;5072210;28;20040;-69
2023/04/10 04:02:43;;;;;;;50.97;34.08;;;4.80;99.90;;;;;;5090078;28;20470;-70
2023/04/10 04:05:09;;;;;;;48.13;33.30;;;4.80;99.90;;;;;;5064374;28;20044;-70
2023/04/10 04:07:35;;;;;;;49.90;33.53;;;4.90;99.90;;;;;;5090108;28;20047;-70
2023/04/10 04:10:00;;;;;;;44.53;31.70;;;5.10;99.90;;;;;;5070779;28;20120;-70
2023/04/10 04:12:26;;;;;;;44.70;30.13;;;5.20;99.90;;;;;;5072513;28;20052;-70
2023/04/10 04:14:52;;;;;;;46.50;32.23;;;5.30;99.90;;;;;;5081004;28;20287;-70
2023/04/10 04:17:18;;;;;;;46.90;31.53;;;5.40;99.90;;;;;;5074255;28;20036;-70
2023/04/10 04:19:44;;;;;;;47.50;31.23;;;5.50;99.90;;;;;;5088203;28;21124;-70
2023/04/10 04:22:14;;;;;;;44.60;31.30;;;5.60;99.90;;;;;;5083014;28;20043;-70
2023/04/10 04:24:39;;;;;;;45.75;30.63;;;5.60;99.90;;;;;;5085467;28;20036;-70
2023/04/10 04:27:06;;;;;;;44.33;30.73;;;5.70;99.90;;;;;;5086991;28;20042;-70
2023/04/10 04:29:31;;;;;;;42.15;29.38;;;5.70;99.90;;;;;;5084058;28;20164;-69
2023/04/10 04:31:57;;;;;;;43.70;29.50;;;5.80;99.90;;;;;;5086574;28;20533;-69
2023/04/10 04:34:23;;;;;;;44.80;29.60;;;5.80;99.90;;;;;;5080974;28;20043;-70
2023/04/10 04:36:49;;;;;;;38.33;27.17;;;5.80;99.90;;;;;;5084531;28;20032;-70
2023/04/10 04:39:15;;;;;;;43.95;28.38;;;5.80;99.90;;;;;;5090031;28;20036;-70
2023/04/10 04:41:40;;;;;;;39.03;26.93;;;5.80;99.90;;;;;;5089235;28;20047;-70
2023/04/10 04:44:06;;;;;;;41.33;27.67;;;5.80;99.90;;;;;;5080241;28;20056;-69
2023/04/10 04:46:32;;;;;;;39.87;26.53;;;5.80;99.90;;;;;;5074956;28;20052;-70
2023/04/10 04:48:57;;;;;;;40.10;27.10;;;5.80;99.90;;;;;;5084931;28;20035;-69
2023/04/10 04:51:23;;;;;;;40.27;26.90;;;5.80;99.90;;;;;;5088528;28;20766;-70
2023/04/10 04:53:49;;;;;;;36.33;25.80;;;5.80;99.90;;;;;;5064903;28;20044;-70
2023/04/10 04:56:15;;;;;;;40.00;27.30;;;5.80;99.90;;;;;;5078596;28;20496;-70
2023/04/10 04:58:40;;;;;;;40.93;26.43;;;5.80;99.90;;;;;;5066912;28;20043;-70
2023/04/10 05:01:07;;;;;;;38.00;25.17;;;5.80;99.90;;;;;;5089126;28;20694;-70
2023/04/10 05:03:33;;;;;;;36.42;24.45;;;5.80;99.90;;;;;;5089066;28;20381;-70
2023/04/10 05:05:58;;;;;;;34.30;23.50;;;5.80;99.90;;;;;;5084919;28;20047;-70
2023/04/10 05:08:24;;;;;;;35.90;23.57;;;5.80;99.90;;;;;;5089077;28;20518;-70
2023/04/10 05:10:50;;;;;;;35.20;24.23;;;5.90;99.90;;;;;;5077561;28;20047;-70
2023/04/10 05:13:16;;;;;;;35.93;24.00;;;5.90;99.90;;;;;;5088770;28;20059;-70
2023/04/10 05:15:43;;;;;;;32.17;23.00;;;5.90;99.90;;;;;;5074210;28;20379;-69
2023/04/10 05:18:09;;;;;;;33.95;23.77;;;5.90;99.90;;;;;;5065978;28;20043;-69
2023/04/10 05:20:36;;;;;;;33.45;22.67;;;6.00;99.90;;;;;;5074175;28;20089;-69
2023/04/10 05:23:02;;;;;;;35.05;23.27;;;6.00;99.90;;;;;;5085581;28;20377;-69
2023/04/10 05:25:28;;;;;;;33.20;21.85;;;6.00;99.90;;;;;;5060401;28;20511;-70
2023/04/10 05:27:53;;;;;;;31.47;21.53;;;6.10;99.90;;;;;;5070820;28;20043;-69
2023/04/10 05:30:19;;;;;;;27.80;20.70;;;6.10;99.90;;;;;;5088783;28;20089;-69
2023/04/10 05:32:45;;;;;;;31.70;21.27;;;6.10;99.90;;;;;;5084850;28;20046;-69
2023/04/10 05:35:11;;;;;;;33.77;22.10;;;6.20;99.90;;;;;;5078493;28;20124;-69
2023/04/10 05:37:37;;;;;;;28.57;20.80;;;6.20;99.90;;;;;;5069086;28;20497;-69
2023/04/10 05:40:03;;;;;;;31.80;20.33;;;6.20;99.90;;;;;;5085991;28;20054;-70
2023/04/10 05:42:29;;;;;;;29.98;20.75;;;6.30;99.90;;;;;;5085106;28;20040;-70
2023/04/10 05:44:55;;;;;;;30.27;20.70;;;6.30;99.90;;;;;;5092101;28;20048;-70
2023/04/10 05:47:21;;;;;;;31.43;20.73;;;6.40;99.90;;;;;;5088714;28;20044;-70
2023/04/10 05:49:46;;;;;;;32.77;21.23;;;6.40;99.90;;;;;;5076636;28;20040;-70
2023/04/10 05:52:12;;;;;;;34.00;21.20;;;6.50;99.90;;;;;;5085160;28;20043;-70
2023/04/10 05:54:38;;;;;;;29.17;20.57;;;6.50;99.90;;;;;;5062526;28;20388;-70
2023/04/10 05:57:03;;;;;;;29.10;20.20;;;6.60;99.90;;;;;;5088314;28;20072;-70
2023/04/10 05:59:29;;;;;;;29.23;19.77;;;6.70;99.90;;;;;;5086848;28;21384;-70
2023/04/10 06:01:56;;;;;;;29.53;18.63;;;6.70;99.90;;;;;;5088207;28;20044;-70
2023/04/10 06:04:22;;;;;;;30.05;19.65;;;6.80;99.90;;;;;;5084581;28;20108;-70
2023/04/10 06:06:48;;;;;;;30.00;19.42;;;6.90;99.90;;;;;;5084482;28;20044;-70
2023/04/10 06:09:14;;;;;;;28.83;19.80;;;7.00;99.90;;;;;;5086410;28;20039;-70
2023/04/10 06:11:39;;;;;;;30.00;20.43;;;7.10;99.90;;;;;;5087332;28;20152;-70
2023/04/10 06:14:05;;;;;;;33.00;21.53;;;7.20;99.90;;;;;;5084339;28;20282;-70
2023/04/10 06:16:31;;;;;;;33.87;21.30;;;7.30;99.90;;;;;;5067370;28;20040;-70
2023/04/10 06:18:57;;;;;;;32.37;21.67;;;7.40;99.90;;;;;;5081491;28;20039;-70
2023/04/10 06:21:23;;;;;;;34.50;22.53;;;7.40;99.90;;;;;;5072410;28;20046;-70
2023/04/10 06:23:48;;;;;;;34.27;22.37;;;7.50;99.90;;;;;;5075259;28;20099;-70
2023/04/10 06:26:14;;;;;;;33.07;22.23;;;7.60;99.90;;;;;;5080256;28;20041;-70
2023/04/10 06:28:41;;;;;;;35.10;22.67;;;7.70;99.90;;;;;;5064094;28;20059;-70
2023/04/10 06:31:06;;;;;;;32.88;21.17;;;7.80;99.90;;;;;;5060138;28;20108;-70
2023/04/10 06:33:34;;;;;;;32.10;21.23;;;8.00;99.90;;;;;;5085110;28;20483;-70
2023/04/10 06:36:00;;;;;;;32.28;21.27;;;8.00;99.90;;;;;;5071234;28;20392;-70
2023/04/10 06:38:26;;;;;;;31.07;20.87;;;8.10;99.90;;;;;;5075100;28;20036;-70
2023/04/10 06:40:52;;;;;;;30.23;20.60;;;8.20;99.90;;;;;;5069910;28;20039;-70
2023/04/10 06:43:17;;;;;;;31.17;20.80;;;8.40;99.90;;;;;;5083447;28;20052;-70
2023/04/10 06:45:44;;;;;;;30.63;20.57;;;8.50;99.90;;;;;;5065632;28;20123;-73
2023/04/10 06:48:10;;;;;;;29.58;20.05;;;8.70;99.90;;;;;;5079461;28;20985;-71
2023/04/10 06:50:35;;;;;;;31.87;21.37;;;8.90;99.90;;;;;;5087243;28;20035;-71
2023/04/10 06:53:01;;;;;;;31.00;21.60;;;9.00;99.90;;;;;;5088500;28;20067;-71
2023/04/10 06:55:27;;;;;;;32.80;21.60;;;9.20;99.90;;;;;;5094492;28;20101;-72
2023/04/10 06:57:54;;;;;;;36.50;23.10;;;9.30;99.90;;;;;;5088728;28;20040;-71
2023/04/10 07:00:21;;;;;;;34.50;22.95;;;9.40;99.90;;;;;;5078619;28;20270;-72
2023/04/10 07:02:46;;;;;;;32.45;21.15;;;9.60;99.90;;;;;;5080583;28;20037;-72
2023/04/10 07:05:13;;;;;;;30.17;20.77;;;9.70;99.90;;;;;;5073231;28;20036;-71
2023/04/10 07:07:39;;;;;;;29.88;19.98;;;9.90;99.90;;;;;;5090839;28;20044;-71
2023/04/10 07:10:05;;;;;;;31.83;19.63;;;10.00;99.90;;;;;;5093317;28;20070;-72
2023/04/10 07:12:32;;;;;;;30.23;19.40;;;10.20;99.90;;;;;;5088665;28;20060;-71
2023/04/10 07:14:57;;;;;;;29.88;19.20;;;10.30;99.90;;;;;;5077834;28;20517;-72
2023/04/10 07:17:24;;;;;;;29.57;19.77;;;10.50;99.90;;;;;;5093624;28;20144;-72
2023/04/10 07:19:49;;;;;;;30.33;19.08;;;10.60;99.90;;;;;;5076325;28;20044;-72
2023/04/10 07:22:15;;;;;;;26.03;18.57;;;10.80;99.90;;;;;;5087735;28;20047;-72
2023/04/10 07:24:41;;;;;;;27.37;18.40;;;10.90;99.90;;;;;;5072735;28;20036;-72
2023/04/10 07:27:07;;;;;;;28.13;17.87;;;11.00;99.90;;;;;;5082502;28;20090;-72
2023/04/10 07:29:32;;;;;;;24.87;17.00;;;11.10;99.90;;;;;;5089449;28;20065;-71
2023/04/10 07:31:58;;;;;;;22.60;15.70;;;11.20;99.90;;;;;;5085418;28;20048;-71
2023/04/10 07:34:24;;;;;;;21.87;15.97;;;11.30;99.90;;;;;;5087365;28;20055;-71
2023/04/10 07:36:51;;;;;;;20.83;15.20;;;11.30;99.90;;;;;;5071757;28;20120;-72
2023/04/10 07:39:17;;;;;;;20.88;14.88;;;11.30;99.90;;;;;;5079875;28;20033;-71
2023/04/10 07:41:43;;;;;;;21.70;15.35;;;11.30;99.90;;;;;;5088990;28;20031;-72
2023/04/10 07:44:09;;;;;;;21.02;15.07;;;11.30;99.90;;;;;;5086692;28;20132;-72
2023/04/10 07:46:35;;;;;;;20.20;15.38;;;11.30;99.90;;;;;;5071013;28;20047;-72
2023/04/10 07:49:01;;;;;;;21.65;14.40;;;11.40;99.90;;;;;;5067713;28;20040;-72
2023/04/10 07:51:27;;;;;;;18.77;14.67;;;11.40;99.90;;;;;;5088707;28;20048;-72
2023/04/10 07:53:53;;;;;;;20.13;14.60;;;11.40;99.90;;;;;;5079934;28;20051;-72
2023/04/10 07:56:20;;;;;;;22.00;14.57;;;11.50;99.90;;;;;;5087121;28;20036;-72
2023/04/10 07:58:46;;;;;;;22.00;15.60;;;11.50;99.90;;;;;;5070628;28;20041;-72
2023/04/10 08:01:12;;;;;;;18.93;14.30;;;11.50;99.90;;;;;;5097973;28;20270;-71
2023/04/10 08:03:45;;;;;;;17.57;13.67;;;11.60;99.90;;;;;;5090266;28;20289;-71
2023/04/10 08:06:11;;;;;;;18.93;14.43;;;11.80;99.90;;;;;;5088584;28;20047;-72
2023/04/10 08:08:38;;;;;;;19.93;14.30;;;11.90;99.20;;;;;;5092617;28;20262;-71
2023/04/10 08:11:40;;;;;;;18.00;13.70;;;12.00;98.20;;;;;;5086911;28;20278;-72
2023/04/10 08:14:06;;;;;;;22.00;15.70;;;12.10;95.40;;;;;;5050249;28;20322;-71
2023/04/10 08:16:34;;;;;;;18.50;13.27;;;12.20;96.30;;;;;;5090116;28;20839;-71
2023/04/10 08:19:00;;;;;;;18.70;13.53;;;12.20;93.90;;;;;;5088294;28;20617;-71
2023/04/10 08:21:28;;;;;;;19.73;13.57;;;12.40;94.90;;;;;;5087074;28;20269;-72
2023/04/10 08:23:56;;;;;;;18.77;13.33;;;12.50;94.30;;;;;;5091281;28;20685;-72
2023/04/10 08:26:22;;;;;;;18.63;13.00;;;12.60;92.20;;;;;;5088376;28;20282;-72
2023/04/10 08:28:49;;;;;;;17.10;13.00;;;12.60;91.10;;;;;;5068580;28;20633;-72
2023/04/10 08:31:20;;;;;;;18.53;13.73;;;12.70;91.20;;;;;;5087578;28;20270;-72
2023/04/10 08:33:46;;;;;;;19.43;13.40;;;12.80;90.30;;;;;;5073709;28;20296;-71
2023/04/10 08:36:14;;;;;;;19.50;14.20;;;12.90;88.90;;;;;;5085397;28;20361;-71
2023/04/10 08:38:44;;;;;;;16.97;13.83;;;13.10;88.10;;;;;;5083993;28;20290;-71
2023/04/10 08:41:14;;;;;;;20.13;14.23;;;13.30;87.10;;;;;;5086533;28;20355;-72
2023/04/10 08:43:40;;;;;;;17.97;12.90;;;13.40;84.00;;;;;;5068284;28;20286;-72
2023/04/10 08:46:06;;;;;;;19.27;13.50;;;13.40;83.80;;;;;;5087208;28;20761;-71
2023/04/10 08:48:52;;;;;;;19.87;13.80;;;13.40;84.60;;;;;;5081988;28;20351;-72
2023/04/10 08:51:20;;;;;;;17.00;13.33;;;13.50;85.50;;;;;;5068256;28;20138;-72
2023/04/10 08:53:57;;;;;;;17.13;12.57;;;13.50;85.40;;;;;;5087145;28;20870;-72
2023/04/10 08:56:23;;;;;;;18.27;13.00;;;13.60;84.90;;;;;;5086937;28;20361;-72
2023/04/10 08:58:50;;;;;;;16.33;12.27;;;13.60;82.50;;;;;;5081115;28;20271;-72
2023/04/10 09:01:18;;;;;;;15.33;12.37;;;13.60;83.40;;;;;;5087894;28;20281;-71
2023/04/10 09:03:46;;;;;;;16.40;12.40;;;13.70;83.00;;;;;;5079191;28;20286;-72
2023/04/10 09:06:12;;;;;;;16.17;12.30;;;13.70;80.90;;;;;;5087833;28;20313;-71
2023/04/10 09:08:38;;;;;;;15.10;11.73;;;13.80;78.40;;;;;;5089813;28;20702;-72
2023/04/10 09:11:04;;;;;;;15.83;12.17;;;13.80;75.70;;;;;;5083292;28;20064;-72
2023/04/10 09:13:41;;;;;;;15.70;12.20;;;13.80;74.60;;;;;;5096519;28;20448;-72
2023/04/10 09:16:08;;;;;;;16.30;11.73;;;13.90;72.90;;;;;;5087904;28;20286;-71
2023/04/10 09:18:44;;;;;;;15.60;12.23;;;13.80;72.70;;;;;;5088140;28;20362;-72
2023/04/10 09:21:11;;;;;;;15.27;11.93;;;13.80;72.50;;;;;;5087052;28;20281;-71
2023/04/10 09:23:37;;;;;;;14.20;11.53;;;13.90;73.40;;;;;;5089299;28;20355;-72
2023/04/10 09:26:26;;;;;;;13.70;11.53;;;14.00;74.30;;;;;;5086119;28;20278;-72
2023/04/10 09:29:03;;;;;;;13.33;10.50;;;14.10;71.80;;;;;;5085707;28;20051;-72
2023/04/10 09:31:34;;;;;;;13.00;10.50;;;14.20;68.70;;;;;;5080397;28;20325;-72
2023/04/10 09:34:10;;;;;;;13.43;11.30;;;14.30;69.80;;;;;;5076984;28;20344;-72
2023/04/10 09:36:36;;;;;;;14.70;11.10;;;14.30;67.90;;;;;;5081785;28;20361;-72
2023/04/10 09:39:05;;;;;;;14.20;11.70;;;14.40;68.60;;;;;;5086088;28;20447;-72
2023/04/10 09:41:31;;;;;;;15.47;11.17;;;14.40;68.30;;;;;;5082794;28;20473;-71
2023/04/10 09:44:10;;;;;;;13.37;10.93;;;14.40;66.10;;;;;;5084762;28;20377;-72
2023/04/10 09:46:37;;;;;;;12.87;10.23;;;14.30;65.60;;;;;;5067414;28;20036;-71
2023/04/10 09:49:06;;;;;;;12.33;10.23;;;14.20;66.30;;;;;;5087591;28;20291;-72
2023/04/10 09:51:34;;;;;;;12.90;10.67;;;14.20;65.40;;;;;;5084625;28;20653;-71
2023/04/10 09:54:00;;;;;;;12.90;10.17;;;14.00;65.20;;;;;;5085975;28;20700;-71
2023/04/10 09:56:28;;;;;;;12.83;10.30;;;14.10;66.90;;;;;;5087649;28;20611;-71
2023/04/10 09:58:58;;;;;;;11.70;10.00;;;14.10;67.90;;;;;;5067208;28;20280;-72
2023/04/10 10:01:33;;;;;;;12.83;9.80;;;14.10;66.20;;;;;;5066414;28;20672;-72
2023/04/10 10:04:02;;;;;;;12.55;10.35;;;14.10;66.00;;;;;;5067056;28;20346;-72
2023/04/10 10:06:30;;;;;;;11.70;9.17;;;14.10;65.30;;;;;;5057966;28;20032;-72
2023/04/10 10:09:01;;;;;;;12.97;10.33;;;14.00;65.70;;;;;;5070523;28;20335;-72
2023/04/10 10:11:28;;;;;;;11.17;9.47;;;14.10;66.80;;;;;;5057765;28;20270;-72
2023/04/10 10:13:55;;;;;;;13.67;10.70;;;14.10;67.50;;;;;;5083170;28;20320;-72
2023/04/10 10:16:49;;;;;;;13.63;9.77;;;14.20;67.50;;;;;;5086167;28;20278;-72
2023/04/10 10:19:19;;;;;;;11.50;9.63;;;14.30;66.70;;;;;;5068160;28;20270;-70
2023/04/10 10:21:46;;;;;;;11.83;9.30;;;14.30;66.50;;;;;;5086812;28;20282;-71
2023/04/10 10:24:13;;;;;;;12.93;9.23;;;14.40;66.60;;;;;;5086260;28;20716;-72
2023/04/10 10:26:39;;;;;;;12.53;10.07;;;14.50;66.20;;;;;;5085875;28;20754;-72
2023/04/10 10:29:12;;;;;;;10.37;9.27;;;14.70;66.20;;;;;;5073156;28;20281;-71
2023/04/10 10:31:39;;;;;;;13.53;10.70;;;14.70;64.10;;;;;;5067531;28;20298;-71
2023/04/10 10:34:08;;;;;;;12.37;9.43;;;14.80;62.80;;;;;;5086639;28;20278;-71
2023/04/10 10:36:38;;;;;;;14.33;10.00;;;14.80;62.00;;;;;;5088006;28;20752;-71
2023/04/10 10:39:29;;;;;;;11.70;9.63;;;14.90;62.60;;;;;;5089752;28;20286;-72
2023/04/10 10:42:11;;;;;;;13.73;10.00;;;14.90;60.80;;;;;;5087491;28;20310;-72
2023/04/10 10:45:04;;;;;;;13.77;9.60;;;14.80;60.30;;;;;;5073467;28;20657;-71
2023/04/10 10:47:32;;;;;;;11.90;9.40;;;14.80;61.50;;;;;;5071779;28;20277;-72
2023/04/10 10:50:02;;;;;;;12.67;9.50;;;14.90;60.90;;;;;;5089451;28;20792;-72
2023/04/10 10:52:48;;;;;;;11.93;9.33;;;14.80;59.20;;;;;;5071490;28;20797;-72
2023/04/10 10:55:27;;;;;;;14.97;10.37;;;14.70;59.70;;;;;;5091972;28;20285;-73
2023/04/10 10:57:59;;;;;;;12.23;9.27;;;14.70;60.80;;;;;;5105783;28;20579;-71
2023/04/10 11:00:45;;;;;;;13.10;9.37;;;14.80;60.40;;;;;;5074083;28;20896;-71
2023/04/10 11:03:14;;;;;;;13.03;9.37;;;14.90;60.30;;;;;;5074349;28;20273;-71
2023/04/10 11:06:03;;;;;;;12.27;9.30;;;14.80;58.10;;;;;;5069189;28;20295;-72
2023/04/10 11:08:32;;;;;;;11.23;9.43;;;14.90;58.70;;;;;;5091864;28;20277;-71
2023/04/10 11:11:06;;;;;;;11.73;9.57;;;14.90;59.20;;;;;;5091371;28;20345;-71
2023/04/10 11:13:33;;;;;;;10.63;9.47;;;14.90;58.80;;;;;;5083861;28;20859;-71
2023/04/10 11:16:01;;;;;;;11.37;9.10;;;14.90;58.00;;;;;;5073661;28;20290;-71
2023/04/10 11:18:46;;;;;;;10.57;9.43;;;15.00;59.50;;;;;;5089122;28;20741;-71
2023/04/10 11:21:12;;;;;;;10.63;9.07;;;15.10;58.40;;;;;;5090623;28;20274;-71
2023/04/10 11:23:58;;;;;;;11.37;8.50;;;15.20;58.90;;;;;;5084201;28;20283;-71
2023/04/10 11:26:37;;;;;;;12.77;8.90;;;15.40;56.90;;;;;;5086509;28;20282;-71
2023/04/10 11:29:11;;;;;;;9.00;7.73;;;15.50;57.60;;;;;;5083730;28;20284;-71
2023/04/10 11:31:38;;;;;;;10.38;8.55;;;15.50;55.60;;;;;;5090397;28;20989;-72
2023/04/10 11:34:09;;;;;;;10.57;8.10;;;15.60;55.80;;;;;;5090577;28;20047;-72
2023/04/10 11:36:40;;;;;;;10.40;8.13;;;15.60;55.30;;;;;;5074112;28;20301;-71
2023/04/10 11:39:17;;;;;;;11.13;8.93;;;15.60;55.60;;;;;;5087601;28;20328;-70
2023/04/10 11:41:47;;;;;;;10.13;8.20;;;15.70;56.50;;;;;;5074531;28;20278;-72
2023/04/10 11:44:30;;;;;;;9.97;8.30;;;15.90;56.20;;;;;;5088095;28;20282;-72
2023/04/10 11:46:56;;;;;;;9.30;8.30;;;16.00;54.60;;;;;;5088557;28;20278;-72
2023/04/10 11:49:29;;;;;;;9.60;8.20;;;16.00;56.00;;;;;;5071621;28;20278;-72
2023/04/10 11:51:55;;;;;;;11.87;8.43;;;16.00;53.90;;;;;;5073807;28;20302;-72
2023/04/10 11:54:26;;;;;;;9.33;7.47;;;16.00;55.00;;;;;;5073336;28;20286;-72
2023/04/10 11:56:57;;;;;;;10.30;8.37;;;16.10;55.90;;;;;;5075255;28;20302;-72
2023/04/10 11:59:23;;;;;;;9.87;8.17;;;16.20;56.80;;;;;;5090346;28;20286;-72
2023/04/10 12:01:52;;;;;;;9.03;7.87;;;16.50;57.40;;;;;;5071237;28;20278;-71
2023/04/10 12:04:20;;;;;;;9.97;7.93;;;16.60;55.80;;;;;;5090688;28;20290;-72
2023/04/10 12:06:51;;;;;;;9.47;7.47;;;16.60;55.30;;;;;;5086759;28;20286;-72
2023/04/10 12:09:21;;;;;;;10.00;7.90;;;16.50;54.40;;;;;;5087975;28;20286;-72
2023/04/10 12:11:52;;;;;;;8.97;7.70;;;16.40;54.30;;;;;;5092482;28;20306;-71
2023/04/10 12:14:19;;;;;;;8.30;7.30;;;16.20;53.90;;;;;;5064863;28;20665;-72
2023/04/10 12:16:46;;;;;;;8.70;7.47;;;16.10;55.90;;;;;;5087946;28;20286;-72
2023/04/10 12:19:12;;;;;;;10.37;8.30;;;15.90;56.40;;;;;;5089149;28;20317;-72
2023/04/10 12:21:43;;;;;;;9.17;8.07;;;15.80;56.60;;;;;;5068552;28;20278;-71
2023/04/10 12:24:09;;;;;;;9.33;7.50;;;15.70;56.70;;;;;;5071210;28;20282;-72
2023/04/10 12:26:35;;;;;;;10.37;7.93;;;15.50;57.50;;;;;;5085422;28;20287;-72
2023/04/10 12:29:01;;;;;;;9.07;7.20;;;15.50;58.30;;;;;;5067358;28;20290;-72
2023/04/10 12:31:32;;;;;;;9.10;7.57;;;15.40;59.30;;;;;;5090282;28;20048;-72
2023/04/10 12:33:59;;;;;;;9.60;7.60;;;15.40;59.50;;;;;;5082041;28;20308;-71
2023/04/10 12:36:30;;;;;;;8.97;6.93;;;15.40;59.70;;;;;;5084139;28;20652;-72
2023/04/10 12:39:02;;;;;;;10.67;7.00;;;15.50;59.20;;;;;;5084798;28;20279;-72
2023/04/10 12:41:30;;;;;;;10.77;7.83;;;15.40;60.20;;;;;;5062613;28;20290;-71
2023/04/10 12:44:12;;;;;;;10.43;8.00;;;15.40;60.10;;;;;;5082501;28;20339;-74